Time;durP1;ratioP1;P1;durP2;ratioP2;P2;SDS_P1;SDS_P2;PMS_P1;PMS_P2;Temp;Humidity;BMP_temperature;BMP_pressure;BME280_temperature;BME280_humidity;BME280_pressure;Samples;Min_cycle;Max_cycle;Signal;HPM_P1;HPM_P2
2023/03/28 00:01:23;;;;;;;9.55;5.07;;;6.00;66.20;;;;;;5014890;28;20275;-80
2023/03/28 00:03:53;;;;;;;9.88;4.85;;;6.00;66.30;;;;;;5019285;28;20229;-80
2023/03/28 00:06:23;;;;;;;7.40;4.47;;;6.00;66.30;;;;;;5012852;28;20210;-80
2023/03/28 00:08:57;;;;;;;12.75;4.43;;;5.90;66.40;;;;;;5013917;28;20196;-80
2023/03/28 00:11:25;;;;;;;8.50;4.43;;;6.00;66.50;;;;;;5011301;28;20281;-80
2023/03/28 00:13:59;;;;;;;7.55;4.20;;;6.00;66.50;;;;;;4994249;28;20220;-80
2023/03/28 00:16:30;;;;;;;7.35;4.15;;;5.90;66.50;;;;;;5011783;28;20334;-81
2023/03/28 00:19:01;;;;;;;8.95;4.75;;;6.00;66.50;;;;;;4997164;28;20605;-80
2023/03/28 00:21:31;;;;;;;12.18;4.35;;;5.90;66.50;;;;;;5012775;28;20257;-80
2023/03/28 00:24:01;;;;;;;9.00;4.43;;;5.90;66.50;;;;;;5011789;28;20229;-81
2023/03/28 00:26:33;;;;;;;10.95;4.70;;;5.90;66.60;;;;;;5009424;28;20917;-80
2023/03/28 00:29:04;;;;;;;13.70;5.20;;;5.90;66.70;;;;;;4999645;28;20237;-80
2023/03/28 00:31:33;;;;;;;13.52;5.20;;;5.90;66.70;;;;;;5009065;28;20244;-80
2023/03/28 00:34:03;;;;;;;6.88;4.05;;;5.90;66.70;;;;;;4994834;28;20294;-80
2023/03/28 00:36:31;;;;;;;9.80;4.88;;;5.90;66.70;;;;;;5011733;28;20206;-80
2023/03/28 00:39:00;;;;;;;10.45;4.15;;;5.90;66.70;;;;;;5007654;28;20202;-80
2023/03/28 00:41:31;;;;;;;10.90;5.20;;;5.80;66.70;;;;;;5006576;28;20220;-80
2023/03/28 00:43:59;;;;;;;7.07;4.40;;;5.80;66.70;;;;;;5004590;28;20195;-80
2023/03/28 00:46:32;;;;;;;10.68;5.30;;;5.80;66.80;;;;;;5012452;28;20285;-81
2023/03/28 00:49:04;;;;;;;13.00;5.22;;;5.80;66.80;;;;;;5013362;28;20297;-80
2023/03/28 00:51:37;;;;;;;10.88;5.78;;;5.70;66.80;;;;;;5011501;28;20351;-80
2023/03/28 00:54:10;;;;;;;8.75;5.13;;;5.70;67.00;;;;;;5008524;28;20196;-80
2023/03/28 00:56:41;;;;;;;8.88;5.00;;;5.70;67.00;;;;;;5013965;28;20206;-80
2023/03/28 00:59:13;;;;;;;7.15;4.00;;;5.60;67.10;;;;;;5017199;28;20289;-80
2023/03/28 01:01:44;;;;;;;10.52;5.30;;;5.60;67.20;;;;;;5012987;28;20873;-81
2023/03/28 01:04:19;;;;;;;10.73;5.18;;;5.60;67.20;;;;;;5023119;28;20836;-80
2023/03/28 01:06:53;;;;;;;9.85;4.78;;;5.60;67.20;;;;;;5017420;28;20218;-80
2023/03/28 01:09:23;;;;;;;7.97;4.85;;;5.50;67.30;;;;;;5012629;28;20218;-80
2023/03/28 01:11:56;;;;;;;10.68;4.82;;;5.50;67.40;;;;;;5014161;28;20217;-80
2023/03/28 01:14:27;;;;;;;9.02;5.13;;;5.50;67.40;;;;;;5016686;28;20292;-81
2023/03/28 01:16:58;;;;;;;10.60;5.00;;;5.50;67.40;;;;;;5019924;28;20214;-81
2023/03/28 01:19:41;;;;;;;10.75;4.55;;;5.50;67.50;;;;;;5015772;28;20205;-80
2023/03/28 01:22:31;;;;;;;10.02;5.28;;;5.50;67.50;;;;;;5017645;28;20260;-80
2023/03/28 01:25:38;;;;;;;10.90;5.63;;;5.50;67.50;;;;;;5009086;28;20345;-81
2023/03/28 01:28:18;;;;;;;10.63;5.05;;;5.50;67.60;;;;;;4965894;28;20238;-80
2023/03/28 01:31:30;;;;;;;9.95;5.65;;;5.50;67.60;;;;;;5011469;28;20604;-80
2023/03/28 01:34:30;;;;;;;8.38;4.53;;;5.50;67.70;;;;;;5013116;28;20206;-80
2023/03/28 01:37:20;;;;;;;8.77;5.30;;;5.50;67.70;;;;;;5013438;28;20194;-81
2023/03/28 01:40:06;;;;;;;10.65;4.68;;;5.50;67.70;;;;;;5006649;28;20206;-80
2023/03/28 01:42:49;;;;;;;16.35;5.30;;;5.50;67.80;;;;;;5016134;28;20659;-80
2023/03/28 01:45:25;;;;;;;10.00;4.85;;;5.50;67.80;;;;;;5014509;28;20201;-81
2023/03/28 01:48:02;;;;;;;8.95;4.90;;;5.50;67.70;;;;;;5016247;28;20207;-80
2023/03/28 01:50:36;;;;;;;9.93;4.88;;;5.60;67.70;;;;;;5017181;28;20226;-80
2023/03/28 01:53:12;;;;;;;8.00;4.95;;;5.50;67.70;;;;;;5015022;28;20207;-80
2023/03/28 01:55:44;;;;;;;15.25;5.10;;;5.50;67.80;;;;;;5018486;28;20576;-80
2023/03/28 01:58:22;;;;;;;13.77;4.70;;;5.50;67.80;;;;;;5016289;28;20212;-80
2023/03/28 02:01:03;;;;;;;9.50;4.32;;;5.50;67.80;;;;;;5010566;28;20272;-80
2023/03/28 02:03:33;;;;;;;11.35;4.90;;;5.50;67.80;;;;;;5023561;28;20341;-80
2023/03/28 02:06:09;;;;;;;10.93;4.85;;;5.50;67.80;;;;;;5000117;28;20206;-80
2023/03/28 02:08:45;;;;;;;17.65;5.70;;;5.50;67.80;;;;;;5008840;28;20205;-80
2023/03/28 02:11:40;;;;;;;7.65;4.85;;;5.50;67.90;;;;;;4999172;28;20233;-80
2023/03/28 02:14:37;;;;;;;13.90;5.20;;;5.50;68.00;;;;;;4983073;28;20225;-80
2023/03/28 02:17:27;;;;;;;10.77;5.15;;;5.40;68.00;;;;;;5011124;28;20202;-80
2023/03/28 02:20:32;;;;;;;9.30;5.13;;;5.40;68.00;;;;;;4999195;28;20211;-80
2023/03/28 02:23:08;;;;;;;11.07;5.20;;;5.40;68.00;;;;;;5009821;28;20289;-80
2023/03/28 02:25:51;;;;;;;11.43;5.15;;;5.40;68.00;;;;;;5015193;28;20208;-80
2023/03/28 02:28:37;;;;;;;19.65;5.30;;;5.40;68.10;;;;;;4997802;28;20198;-80
2023/03/28 02:31:16;;;;;;;14.40;5.53;;;5.30;68.10;;;;;;5011872;28;20234;-80
2023/03/28 02:33:48;;;;;;;18.65;5.00;;;5.30;68.10;;;;;;5015169;28;20840;-80
2023/03/28 02:36:25;;;;;;;17.15;5.50;;;5.30;68.10;;;;;;5018275;28;20683;-80
2023/03/28 02:39:15;;;;;;;13.77;5.82;;;5.30;68.20;;;;;;5007039;28;20922;-80
2023/03/28 02:41:57;;;;;;;10.38;4.75;;;5.30;68.20;;;;;;5011612;28;20549;-80
2023/03/28 02:44:41;;;;;;;13.73;4.95;;;5.30;68.20;;;;;;5001910;28;20209;-80
2023/03/28 02:47:18;;;;;;;11.95;5.10;;;5.30;68.20;;;;;;5011455;28;20288;-80
2023/03/28 02:50:03;;;;;;;9.20;4.90;;;5.30;68.20;;;;;;4996729;28;20198;-80
2023/03/28 02:52:50;;;;;;;10.65;5.00;;;5.30;68.10;;;;;;4996764;28;20237;-80
2023/03/28 02:55:24;;;;;;;10.70;5.32;;;5.20;68.20;;;;;;5017171;28;20308;-80
2023/03/28 02:58:07;;;;;;;10.32;5.00;;;5.20;68.20;;;;;;5015309;28;20213;-80
2023/03/28 03:00:38;;;;;;;9.55;5.53;;;5.20;68.30;;;;;;5011016;28;20236;-80
2023/03/28 03:03:09;;;;;;;10.48;6.00;;;5.20;68.30;;;;;;5008596;28;20197;-80
2023/03/28 03:05:37;;;;;;;10.60;5.47;;;5.20;68.30;;;;;;4999616;28;20193;-80
2023/03/28 03:08:06;;;;;;;10.65;5.13;;;5.20;68.30;;;;;;5010347;28;20209;-80
2023/03/28 03:10:35;;;;;;;10.95;5.22;;;5.20;68.30;;;;;;5011800;28;20296;-81
2023/03/28 03:13:05;;;;;;;10.05;5.13;;;5.20;68.30;;;;;;5011926;28;20229;-81
2023/03/28 03:15:34;;;;;;;10.38;5.25;;;5.10;68.30;;;;;;5012682;28;20205;-80
2023/03/28 03:18:22;;;;;;;9.63;4.90;;;5.10;68.30;;;;;;5011808;28;20209;-80
2023/03/28 03:20:51;;;;;;;11.63;4.93;;;5.00;68.30;;;;;;5009637;28;20198;-80
2023/03/28 03:23:20;;;;;;;9.93;5.20;;;5.00;68.30;;;;;;5009016;28;20620;-80
2023/03/28 03:25:53;;;;;;;12.40;5.22;;;5.00;68.40;;;;;;5008516;28;20611;-80
2023/03/28 03:28:52;;;;;;;9.55;4.90;;;5.00;68.50;;;;;;5003036;28;20252;-80
2023/03/28 03:31:22;;;;;;;16.52;5.90;;;5.00;68.50;;;;;;5012832;28;20229;-80
2023/03/28 03:34:23;;;;;;;16.33;5.05;;;5.00;68.50;;;;;;5013118;28;20290;-80
2023/03/28 03:36:54;;;;;;;11.88;5.40;;;5.00;68.50;;;;;;5008663;28;20284;-80
2023/03/28 03:39:22;;;;;;;12.43;5.65;;;5.00;68.60;;;;;;5011892;28;20202;-80
2023/03/28 03:41:50;;;;;;;10.02;5.32;;;5.00;68.60;;;;;;5016505;28;20205;-80
2023/03/28 03:44:19;;;;;;;10.93;5.15;;;5.00;68.60;;;;;;5015490;28;20210;-80
2023/03/28 03:46:47;;;;;;;14.60;5.50;;;5.00;68.50;;;;;;5014468;28;20198;-80
2023/03/28 03:49:16;;;;;;;11.90;5.28;;;5.00;68.50;;;;;;4996761;28;20555;-80
2023/03/28 03:51:44;;;;;;;12.93;5.65;;;5.00;68.50;;;;;;5022662;28;20206;-80
2023/03/28 03:54:16;;;;;;;10.25;4.97;;;5.00;68.50;;;;;;5011947;28;20206;-80
2023/03/28 03:56:44;;;;;;;9.85;5.10;;;4.90;68.50;;;;;;5015981;28;20198;-80
2023/03/28 03:59:14;;;;;;;10.48;5.53;;;4.90;68.40;;;;;;5000590;28;20263;-80
2023/03/28 04:01:43;;;;;;;14.52;5.72;;;4.90;68.40;;;;;;5016287;28;20312;-80
2023/03/28 04:04:39;;;;;;;10.05;4.63;;;4.80;68.50;;;;;;5004037;28;20233;-80
2023/03/28 04:07:10;;;;;;;9.88;5.00;;;4.80;68.50;;;;;;5010727;28;20624;-80
2023/03/28 04:09:38;;;;;;;12.35;5.18;;;4.70;68.50;;;;;;5013298;28;20205;-80
2023/03/28 04:12:08;;;;;;;9.40;5.63;;;4.70;68.50;;;;;;5009942;28;20218;-80
2023/03/28 04:14:45;;;;;;;14.35;4.90;;;4.60;68.50;;;;;;5014281;28;20201;-80
2023/03/28 04:17:36;;;;;;;16.45;5.38;;;4.50;68.80;;;;;;4975697;28;20213;-80
2023/03/28 04:20:11;;;;;;;12.63;5.10;;;4.50;68.90;;;;;;5017265;28;20703;-80
2023/03/28 04:23:04;;;;;;;12.73;5.10;;;4.40;69.00;;;;;;5010723;28;20205;-80
2023/03/28 04:25:35;;;;;;;11.10;5.85;;;4.40;69.10;;;;;;4996336;28;20885;-80
2023/03/28 04:28:11;;;;;;;13.20;5.57;;;4.50;69.20;;;;;;5020257;28;20213;-80
2023/03/28 04:30:57;;;;;;;9.30;4.80;;;4.50;69.30;;;;;;5011030;28;20252;-80
2023/03/28 04:33:45;;;;;;;9.10;5.05;;;4.50;69.30;;;;;;5013153;28;20248;-80
2023/03/28 04:36:17;;;;;;;11.45;5.40;;;4.50;69.30;;;;;;5012438;28;20420;-80
2023/03/28 04:38:57;;;;;;;16.92;5.55;;;4.60;69.30;;;;;;5016950;28;20217;-80
2023/03/28 04:41:54;;;;;;;11.70;4.50;;;4.50;69.30;;;;;;5013022;28;20255;-80
2023/03/28 04:44:46;;;;;;;13.68;5.07;;;4.50;69.30;;;;;;5017987;28;20281;-80
2023/03/28 04:47:14;;;;;;;9.50;4.78;;;4.50;69.50;;;;;;5003838;28;20208;-80
2023/03/28 04:49:43;;;;;;;9.32;4.90;;;4.60;69.50;;;;;;5017877;28;20218;-80
2023/03/28 04:52:11;;;;;;;12.63;5.00;;;4.60;69.50;;;;;;5011308;28;20269;-80
2023/03/28 04:54:44;;;;;;;15.70;5.55;;;4.60;69.50;;;;;;5017779;28;20205;-80
2023/03/28 04:57:15;;;;;;;10.63;5.40;;;4.60;69.50;;;;;;5019639;28;20200;-80
2023/03/28 04:59:46;;;;;;;11.38;5.05;;;4.60;69.50;;;;;;5017321;28;20201;-81
2023/03/28 05:02:22;;;;;;;9.32;4.95;;;4.60;69.50;;;;;;5018118;28;20217;-80
2023/03/28 05:05:00;;;;;;;13.35;5.18;;;4.50;69.50;;;;;;5002944;28;20288;-80
2023/03/28 05:07:28;;;;;;;10.35;5.03;;;4.50;69.50;;;;;;5013412;28;20213;-80
2023/03/28 05:09:57;;;;;;;11.60;5.40;;;4.50;69.60;;;;;;5018462;28;20190;-80
2023/03/28 05:12:34;;;;;;;15.68;5.45;;;4.50;69.60;;;;;;5018609;28;20271;-80
2023/03/28 05:15:05;;;;;;;10.73;4.90;;;4.50;69.60;;;;;;5013667;28;20189;-79
2023/03/28 05:17:41;;;;;;;9.25;5.03;;;4.50;69.60;;;;;;5018298;28;20194;-80
2023/03/28 05:20:31;;;;;;;15.57;5.60;;;4.50;69.60;;;;;;5016205;28;20442;-80
2023/03/28 05:23:00;;;;;;;10.52;5.07;;;4.40;69.60;;;;;;5015109;28;20233;-80
2023/03/28 05:25:28;;;;;;;8.77;5.05;;;4.40;69.70;;;;;;5012930;28;20229;-81
2023/03/28 05:27:56;;;;;;;12.90;5.80;;;4.40;69.80;;;;;;5012330;28;20206;-80
2023/03/28 05:30:26;;;;;;;11.07;4.82;;;4.40;69.90;;;;;;5015482;28;20189;-80
2023/03/28 05:32:57;;;;;;;11.20;5.25;;;4.40;69.90;;;;;;5013695;28;20305;-80
2023/03/28 05:35:25;;;;;;;11.10;4.93;;;4.40;69.80;;;;;;5014657;28;20232;-80
2023/03/28 05:37:54;;;;;;;10.05;5.75;;;4.40;69.90;;;;;;5015249;28;20197;-80
2023/03/28 05:40:22;;;;;;;14.18;5.13;;;4.50;69.90;;;;;;5013133;28;20232;-80
2023/03/28 05:42:55;;;;;;;11.07;7.03;;;4.50;69.90;;;;;;5021033;28;20281;-80
2023/03/28 05:45:23;;;;;;;12.23;4.80;;;4.50;69.90;;;;;;5016564;28;20739;-80
2023/03/28 05:48:17;;;;;;;13.20;5.35;;;4.50;70.00;;;;;;5007865;28;20211;-80
2023/03/28 05:50:48;;;;;;;9.15;5.05;;;4.50;70.00;;;;;;5009824;28;20217;-80
2023/03/28 05:53:17;;;;;;;14.80;5.20;;;4.60;70.00;;;;;;5015689;28;20214;-80
2023/03/28 05:55:45;;;;;;;13.90;5.75;;;4.60;70.10;;;;;;5014405;28;20224;-80
2023/03/28 05:58:15;;;;;;;13.65;4.93;;;4.60;70.10;;;;;;5014692;28;20439;-80
2023/03/28 06:00:43;;;;;;;10.93;4.88;;;4.70;70.10;;;;;;5014473;28;20237;-80
2023/03/28 06:03:12;;;;;;;13.63;4.78;;;4.70;70.20;;;;;;5015500;28;20194;-80
2023/03/28 06:05:45;;;;;;;19.48;5.57;;;4.70;70.20;;;;;;5014986;28;20201;-80
2023/03/28 06:08:23;;;;;;;14.63;6.45;;;4.80;70.20;;;;;;5015143;28;20212;-80
2023/03/28 06:10:51;;;;;;;10.32;5.22;;;4.80;70.20;;;;;;5014089;28;20713;-80
2023/03/28 06:13:24;;;;;;;9.50;4.70;;;4.90;70.20;;;;;;5017472;28;20217;-80
2023/03/28 06:15:52;;;;;;;13.90;6.30;;;4.90;70.20;;;;;;5016859;28;20257;-80
2023/03/28 06:18:29;;;;;;;10.02;5.07;;;4.90;70.20;;;;;;5017371;28;20223;-80
2023/03/28 06:20:57;;;;;;;13.95;6.20;;;4.90;70.20;;;;;;5014287;28;20793;-80
2023/03/28 06:23:27;;;;;;;17.73;6.13;;;5.00;70.20;;;;;;5013125;28;20256;-80
2023/03/28 06:25:56;;;;;;;18.40;6.32;;;5.00;70.20;;;;;;5013396;28;20313;-81
2023/03/28 06:28:26;;;;;;;11.02;6.15;;;5.10;70.10;;;;;;5014759;28;20298;-84
2023/03/28 06:31:14;;;;;;;13.48;6.10;;;5.10;70.10;;;;;;5013663;28;20376;-80
2023/03/28 06:33:43;;;;;;;13.07;5.05;;;5.10;70.10;;;;;;5013911;28;20222;-81
2023/03/28 06:36:11;;;;;;;17.60;6.85;;;5.10;70.00;;;;;;5014667;28;20218;-81
2023/03/28 06:38:41;;;;;;;20.30;6.82;;;5.10;70.00;;;;;;5010681;28;20204;-80
2023/03/28 06:41:09;;;;;;;10.80;6.05;;;5.00;70.10;;;;;;5018530;28;20220;-83
2023/03/28 06:43:37;;;;;;;12.43;6.18;;;5.00;70.10;;;;;;5016203;28;20206;-83
2023/03/28 06:46:09;;;;;;;17.65;6.63;;;5.00;70.20;;;;;;5016932;28;20209;-84
2023/03/28 06:48:43;;;;;;;23.35;6.80;;;5.10;70.30;;;;;;5012201;28;20213;-80
2023/03/28 06:51:40;;;;;;;17.85;6.60;;;5.10;70.30;;;;;;5011946;28;20412;-81
2023/03/28 06:54:09;;;;;;;12.70;7.10;;;5.10;70.40;;;;;;5014398;28;20304;-81
2023/03/28 06:56:37;;;;;;;22.67;7.90;;;5.10;70.40;;;;;;5012892;28;20198;-84
2023/03/28 06:59:05;;;;;;;13.23;6.45;;;5.10;70.40;;;;;;5014422;28;20205;-81
2023/03/28 07:01:35;;;;;;;12.15;6.40;;;5.10;70.40;;;;;;4997602;28;20225;-82
2023/03/28 07:04:06;;;;;;;16.27;6.90;;;5.10;70.30;;;;;;5021081;28;20209;-82
2023/03/28 07:06:35;;;;;;;17.17;7.38;;;5.10;70.40;;;;;;5011815;28;20202;-82
2023/03/28 07:09:04;;;;;;;16.00;6.88;;;5.10;70.70;;;;;;5010078;28;20213;-82
2023/03/28 07:11:55;;;;;;;17.70;7.43;;;5.10;70.70;;;;;;5014325;28;20209;-82
2023/03/28 07:14:23;;;;;;;18.42;7.65;;;5.10;70.70;;;;;;5016413;28;20221;-85
2023/03/28 07:16:52;;;;;;;16.20;6.90;;;5.10;70.70;;;;;;4996703;28;20202;-82
2023/03/28 07:19:20;;;;;;;18.10;6.28;;;5.10;70.70;;;;;;5002674;28;20214;-81
2023/03/28 07:21:48;;;;;;;18.67;6.72;;;5.10;70.70;;;;;;5016058;28;20218;-83
2023/03/28 07:24:16;;;;;;;14.15;6.53;;;5.10;70.80;;;;;;4998296;28;20206;-82
2023/03/28 07:27:05;;;;;;;14.20;6.53;;;5.10;70.90;;;;;;5014314;28;20201;-82
2023/03/28 07:29:36;;;;;;;17.00;6.70;;;5.20;71.00;;;;;;5016701;28;20195;-82
2023/03/28 07:32:04;;;;;;;15.40;8.15;;;5.10;71.00;;;;;;5014549;28;20614;-82
2023/03/28 07:34:32;;;;;;;15.55;8.13;;;5.10;71.30;;;;;;5014332;28;20214;-81
2023/03/28 07:37:02;;;;;;;17.00;7.28;;;5.10;71.20;;;;;;5006183;28;20652;-83
2023/03/28 07:40:04;;;;;;;14.43;6.85;;;5.10;71.30;;;;;;4983407;28;20217;-82
2023/03/28 07:42:33;;;;;;;14.20;6.97;;;5.10;71.40;;;;;;5020547;28;20215;-83
2023/03/28 07:45:01;;;;;;;20.30;6.85;;;5.10;71.40;;;;;;5013441;28;20221;-81
2023/03/28 07:47:29;;;;;;;16.42;6.72;;;5.20;71.50;;;;;;5021768;28;20206;-79
2023/03/28 07:49:57;;;;;;;19.55;6.55;;;5.20;71.60;;;;;;5003741;28;20816;-84
2023/03/28 07:52:26;;;;;;;15.93;6.93;;;5.30;71.50;;;;;;4998094;28;20252;-82
2023/03/28 07:54:55;;;;;;;15.27;6.38;;;5.30;71.50;;;;;;4999945;28;20314;-83
2023/03/28 07:57:23;;;;;;;13.77;6.55;;;5.40;71.50;;;;;;5017672;28;20198;-80
2023/03/28 08:00:16;;;;;;;12.13;5.50;;;5.50;71.50;;;;;;5018855;28;20235;-83
2023/03/28 08:02:58;;;;;;;11.25;5.55;;;5.50;71.50;;;;;;5016690;28;20206;-80
2023/03/28 08:05:26;;;;;;;15.18;6.70;;;5.60;71.50;;;;;;5013997;28;20293;-81
2023/03/28 08:07:54;;;;;;;8.20;4.90;;;5.70;71.40;;;;;;5017943;28;20214;-82
2023/03/28 08:10:22;;;;;;;14.18;4.93;;;5.70;71.40;;;;;;4999159;28;20194;-80
2023/03/28 08:12:50;;;;;;;13.68;5.43;;;5.80;71.40;;;;;;5016013;28;20186;-84
2023/03/28 08:15:20;;;;;;;18.42;4.97;;;5.80;71.40;;;;;;5018078;28;20364;-82
2023/03/28 08:17:48;;;;;;;15.75;5.43;;;5.80;71.40;;;;;;5015710;28;20221;-81
2023/03/28 08:20:18;;;;;;;16.00;5.75;;;5.90;71.40;;;;;;5000737;28;20732;-81
2023/03/28 08:22:58;;;;;;;13.93;5.40;;;5.90;71.40;;;;;;4998367;28;20195;-84
2023/03/28 08:25:46;;;;;;;25.65;11.70;;;5.90;71.40;;;;;;5015872;28;20493;-83
2023/03/28 08:28:18;;;;;;;17.77;6.30;;;6.00;71.40;;;;;;5013829;28;20212;-81
2023/03/28 08:30:48;;;;;;;13.27;4.75;;;6.10;71.30;;;;;;5016251;28;20228;-83
2023/03/28 08:33:16;;;;;;;15.10;4.28;;;6.10;71.20;;;;;;5012673;28;20241;-80
2023/03/28 08:35:45;;;;;;;8.98;3.75;;;6.10;71.20;;;;;;5015822;28;20667;-82
2023/03/28 08:38:17;;;;;;;12.23;3.80;;;6.10;71.10;;;;;;4994596;28;20264;-80
2023/03/28 08:40:56;;;;;;;11.60;3.63;;;6.10;71.10;;;;;;5004677;28;20202;-81
2023/03/28 08:44:00;;;;;;;9.23;3.45;;;6.20;71.10;;;;;;5011933;28;20707;-81
2023/03/28 08:46:31;;;;;;;10.13;3.30;;;6.20;70.90;;;;;;4981921;28;20517;-82
2023/03/28 08:49:05;;;;;;;11.25;3.67;;;6.20;70.80;;;;;;5015151;28;20293;-80
2023/03/28 08:51:37;;;;;;;10.48;2.63;;;6.20;70.80;;;;;;5013496;28;20617;-80
2023/03/28 08:54:13;;;;;;;8.90;2.40;;;6.30;70.70;;;;;;5019656;28;20281;-83
2023/03/28 08:56:44;;;;;;;16.20;3.05;;;6.30;70.30;;;;;;4999779;28;20183;-80
2023/03/28 08:59:15;;;;;;;8.35;2.72;;;6.30;70.20;;;;;;5016273;28;20201;-83
2023/03/28 09:01:46;;;;;;;11.55;2.92;;;6.20;70.10;;;;;;5012227;28;20255;-83
2023/03/28 09:04:24;;;;;;;14.65;3.42;;;6.30;70.20;;;;;;5014911;28;20205;-80
2023/03/28 09:07:11;;;;;;;7.07;2.50;;;6.40;70.20;;;;;;5001445;28;20917;-82
2023/03/28 09:09:49;;;;;;;9.05;3.25;;;6.50;70.10;;;;;;5006694;28;20280;-80
2023/03/28 09:12:55;;;;;;;7.97;2.50;;;6.50;70.00;;;;;;5000566;28;20218;-80
2023/03/28 09:15:44;;;;;;;7.10;2.13;;;6.60;69.90;;;;;;5011853;28;20216;-81
2023/03/28 09:18:41;;;;;;;13.77;2.70;;;6.70;69.60;;;;;;5012314;28;20220;-80
2023/03/28 09:21:16;;;;;;;9.48;2.50;;;6.80;69.40;;;;;;5015979;28;20639;-80
2023/03/28 09:23:57;;;;;;;14.50;3.80;;;6.80;69.40;;;;;;5019180;28;20207;-82
2023/03/28 09:26:52;;;;;;;7.40;2.13;;;6.80;69.10;;;;;;5016284;28;20210;-80
2023/03/28 09:29:24;;;;;;;13.80;2.75;;;6.80;69.00;;;;;;5021368;28;20833;-80
2023/03/28 09:31:59;;;;;;;8.80;2.17;;;6.90;68.90;;;;;;5017342;28;20235;-79
2023/03/28 09:34:37;;;;;;;8.77;2.75;;;6.90;68.80;;;;;;5016555;28;20259;-83
2023/03/28 09:37:16;;;;;;;10.57;2.30;;;7.00;68.70;;;;;;5006567;28;20889;-82
2023/03/28 09:39:50;;;;;;;9.13;1.90;;;7.00;68.60;;;;;;5015662;28;20212;-81
2023/03/28 09:42:30;;;;;;;8.25;2.67;;;7.00;68.50;;;;;;5005158;28;20689;-82
2023/03/28 09:45:39;;;;;;;7.78;2.35;;;7.10;68.20;;;;;;5018690;28;20216;-81
2023/03/28 09:48:28;;;;;;;9.88;2.42;;;7.10;68.30;;;;;;5015245;28;20211;-81
2023/03/28 09:51:02;;;;;;;12.43;2.30;;;7.20;68.20;;;;;;5016111;28;20550;-82
2023/03/28 09:53:32;;;;;;;10.50;2.05;;;7.20;68.00;;;;;;5018638;28;20210;-80
2023/03/28 09:56:04;;;;;;;9.70;2.25;;;7.20;67.80;;;;;;5008064;28;20687;-81
2023/03/28 09:58:49;;;;;;;7.25;2.50;;;7.30;67.40;;;;;;5016894;28;20692;-80
2023/03/28 10:01:40;;;;;;;7.43;2.38;;;7.30;67.30;;;;;;5013069;28;20723;-80
2023/03/28 10:04:12;;;;;;;10.57;2.05;;;7.30;67.20;;;;;;5011626;28;20228;-80
2023/03/28 10:07:33;;;;;;;5.10;1.75;;;7.30;67.20;;;;;;5010570;28;20224;-81
2023/03/28 10:10:18;;;;;;;8.55;1.75;;;7.30;66.10;;;;;;5014591;28;20255;-79
2023/03/28 10:12:48;;;;;;;4.72;1.27;;;7.20;66.00;;;;;;5005702;28;20205;-79
2023/03/28 10:15:38;;;;;;;5.32;2.22;;;7.20;65.80;;;;;;5018178;28;20243;-81
2023/03/28 10:18:28;;;;;;;10.80;1.90;;;7.10;65.40;;;;;;5013966;28;20295;-79
2023/03/28 10:21:22;;;;;;;9.15;2.22;;;7.10;65.60;;;;;;5008780;28;20270;-80
2023/03/28 10:24:05;;;;;;;4.18;1.55;;;7.10;65.30;;;;;;5014815;28;20211;-79
2023/03/28 10:26:33;;;;;;;7.45;1.75;;;7.20;65.30;;;;;;4998077;28;20199;-79
2023/03/28 10:29:07;;;;;;;5.47;2.08;;;7.30;65.20;;;;;;5018953;28;20220;-80
2023/03/28 10:31:38;;;;;;;6.50;1.98;;;7.30;65.00;;;;;;5010633;28;20233;-82
2023/03/28 10:34:27;;;;;;;8.82;2.00;;;7.40;65.00;;;;;;5013884;28;20212;-81
2023/03/28 10:37:31;;;;;;;5.45;2.10;;;7.40;65.00;;;;;;5007834;28;20214;-82
2023/03/28 10:40:28;;;;;;;8.18;2.38;;;7.50;64.70;;;;;;5002851;28;20236;-80
2023/03/28 10:43:15;;;;;;;5.95;1.80;;;7.50;64.40;;;;;;5014661;28;20564;-82
2023/03/28 10:46:07;;;;;;;8.10;2.10;;;7.50;64.10;;;;;;5015964;28;20240;-82
2023/03/28 10:48:58;;;;;;;8.13;2.20;;;7.50;64.20;;;;;;5019048;28;20221;-80
2023/03/28 10:51:30;;;;;;;12.75;4.88;;;7.60;64.20;;;;;;5010141;28;20460;-82
2023/03/28 10:54:17;;;;;;;7.35;2.50;;;7.70;64.10;;;;;;5012354;28;20296;-82
2023/03/28 10:56:52;;;;;;;10.18;2.70;;;7.70;63.30;;;;;;5014337;28;20217;-81
2023/03/28 10:59:40;;;;;;;8.55;2.40;;;7.70;63.40;;;;;;5014290;28;20372;-80
2023/03/28 11:02:53;;;;;;;9.52;2.40;;;7.70;63.40;;;;;;5014515;28;20244;-80
2023/03/28 11:05:33;;;;;;;13.00;2.10;;;7.70;63.40;;;;;;5019236;28;20239;-83
2023/03/28 11:08:20;;;;;;;4.53;1.83;;;7.80;63.70;;;;;;5011140;28;20671;-81
2023/03/28 11:11:07;;;;;;;12.10;1.90;;;7.90;63.60;;;;;;5019287;28;20201;-80
2023/03/28 11:13:51;;;;;;;9.63;1.77;;;8.10;63.50;;;;;;5017028;28;20209;-82
2023/03/28 11:16:31;;;;;;;5.15;1.92;;;8.20;63.30;;;;;;5015190;28;20252;-82
2023/03/28 11:19:34;;;;;;;5.57;1.83;;;8.30;62.90;;;;;;5014614;28;20226;-81
2023/03/28 11:22:15;;;;;;;4.83;1.57;;;8.30;62.80;;;;;;5016519;28;21316;-82
2023/03/28 11:24:56;;;;;;;11.50;2.47;;;8.30;62.70;;;;;;4999091;28;20456;-81
2023/03/28 11:27:52;;;;;;;4.70;1.77;;;8.30;62.40;;;;;;5013969;28;20726;-80
2023/03/28 11:30:47;;;;;;;8.47;4.50;;;8.40;62.20;;;;;;5013615;28;20483;-81
2023/03/28 11:33:42;;;;;;;5.80;1.77;;;8.40;62.20;;;;;;5014708;28;20468;-80
2023/03/28 11:36:23;;;;;;;8.80;2.57;;;8.40;62.10;;;;;;5013214;28;20545;-79
2023/03/28 11:38:59;;;;;;;7.80;1.70;;;8.40;61.90;;;;;;5008413;28;20486;-81
2023/03/28 11:41:32;;;;;;;5.50;1.57;;;8.40;61.70;;;;;;4998828;28;21130;-81
2023/03/28 11:44:12;;;;;;;5.13;1.47;;;8.40;61.60;;;;;;4999315;28;20519;-82
2023/03/28 11:46:48;;;;;;;5.10;2.00;;;8.40;61.60;;;;;;5001332;28;20626;-83
2023/03/28 11:49:21;;;;;;;5.00;2.10;;;8.50;61.50;;;;;;4997472;28;20471;-82
2023/03/28 11:51:58;;;;;;;7.10;2.22;;;8.50;61.40;;;;;;4997573;28;20491;-81
2023/03/28 11:54:34;;;;;;;5.80;1.85;;;8.50;61.30;;;;;;4993680;28;20226;-81
2023/03/28 11:57:08;;;;;;;7.53;2.03;;;8.40;60.80;;;;;;5015523;28;20212;-82
2023/03/28 11:59:50;;;;;;;7.50;1.70;;;8.40;60.70;;;;;;5018358;28;20468;-79
2023/03/28 12:02:37;;;;;;;7.33;1.90;;;8.30;60.60;;;;;;5015004;28;20484;-80
2023/03/28 12:05:15;;;;;;;8.80;1.87;;;8.30;60.60;;;;;;5013077;28;20584;-81
2023/03/28 12:07:49;;;;;;;11.20;1.40;;;8.40;60.80;;;;;;5013524;28;20507;-82
2023/03/28 12:10:34;;;;;;;5.27;1.60;;;8.40;60.90;;;;;;4998468;28;21103;-79
2023/03/28 12:13:10;;;;;;;4.30;1.40;;;8.50;60.80;;;;;;5011319;28;20452;-80
2023/03/28 12:15:49;;;;;;;5.30;1.30;;;8.60;60.70;;;;;;5015447;28;22081;-82
2023/03/28 12:18:28;;;;;;;7.07;1.77;;;8.60;60.50;;;;;;5016620;28;20727;-81
2023/03/28 12:21:04;;;;;;;5.67;1.40;;;8.60;60.50;;;;;;4997381;28;20469;-81
2023/03/28 12:23:39;;;;;;;4.80;1.33;;;8.70;60.30;;;;;;5011167;28;20463;-80
2023/03/28 12:26:44;;;;;;;5.10;1.55;;;8.70;60.50;;;;;;4996456;28;20457;-81
2023/03/28 12:29:19;;;;;;;5.38;1.92;;;8.70;60.40;;;;;;5013201;28;20213;-79
2023/03/28 12:31:55;;;;;;;5.00;1.40;;;8.80;60.20;;;;;;5014728;28;20300;-80
2023/03/28 12:34:34;;;;;;;5.17;1.53;;;8.80;60.20;;;;;;5018276;28;20974;-82
2023/03/28 12:37:32;;;;;;;10.73;1.83;;;8.90;60.20;;;;;;5003496;28;21330;-80
2023/03/28 12:40:22;;;;;;;6.70;1.43;;;8.80;59.70;;;;;;5015206;28;20475;-83
2023/03/28 12:42:55;;;;;;;4.70;1.57;;;8.80;60.00;;;;;;5009907;28;20491;-81
2023/03/28 12:45:30;;;;;;;6.13;1.70;;;8.90;60.00;;;;;;5010102;28;20460;-80
2023/03/28 12:48:05;;;;;;;14.43;1.83;;;8.90;60.00;;;;;;5015202;28;20486;-81
2023/03/28 12:50:43;;;;;;;5.53;1.70;;;9.00;59.80;;;;;;4996316;28;20472;-79
2023/03/28 12:53:16;;;;;;;7.27;2.07;;;9.00;59.50;;;;;;5015051;28;20464;-82
2023/03/28 12:55:46;;;;;;;5.03;1.60;;;9.00;59.60;;;;;;5012310;28;20540;-81
2023/03/28 12:58:27;;;;;;;8.03;1.30;;;9.10;59.40;;;;;;5017870;28;20539;-81
2023/03/28 13:01:20;;;;;;;5.53;1.40;;;9.10;59.30;;;;;;5015667;28;20748;-80
2023/03/28 13:04:21;;;;;;;6.67;1.57;;;9.10;59.30;;;;;;5001565;28;21044;-82
2023/03/28 13:07:10;;;;;;;7.53;1.50;;;9.20;59.30;;;;;;5011929;28;20469;-81
2023/03/28 13:09:51;;;;;;;5.20;1.57;;;9.20;59.20;;;;;;5011907;28;20460;-78
2023/03/28 13:12:29;;;;;;;6.37;1.70;;;9.20;59.00;;;;;;5009614;28;20484;-80
2023/03/28 13:15:01;;;;;;;4.70;1.20;;;9.20;59.00;;;;;;5014928;28;20463;-81
2023/03/28 13:17:33;;;;;;;4.47;1.43;;;9.20;58.70;;;;;;5017839;28;20492;-82
2023/03/28 13:20:09;;;;;;;7.53;1.63;;;9.20;58.60;;;;;;5009469;28;20481;-80
2023/03/28 13:22:48;;;;;;;5.50;1.47;;;9.30;58.50;;;;;;5013358;28;20458;-82
2023/03/28 13:25:32;;;;;;;7.73;1.57;;;9.30;58.50;;;;;;5006182;28;20470;-82
2023/03/28 13:28:21;;;;;;;5.47;1.50;;;9.30;58.50;;;;;;5009094;28;20483;-82
2023/03/28 13:31:05;;;;;;;5.37;1.43;;;9.30;58.20;;;;;;5012528;28;20479;-79
2023/03/28 13:33:36;;;;;;;6.03;1.47;;;9.40;58.30;;;;;;5009617;28;20456;-83
2023/03/28 13:36:29;;;;;;;6.30;1.27;;;9.30;58.30;;;;;;5006684;28;20460;-80
2023/03/28 13:39:21;;;;;;;4.20;1.23;;;9.40;58.30;;;;;;4999290;28;20487;-82
2023/03/28 13:42:00;;;;;;;6.13;1.50;;;9.40;58.30;;;;;;5010520;28;20448;-81
2023/03/28 13:44:36;;;;;;;5.93;1.70;;;9.50;58.20;;;;;;5012210;28;20510;-78